Latest Weather Observations for Cabramurra

IDN60901

Issued at 7:41 pm EST Monday 10 August 2020 (issued every 10 minutes, with the page automatically refreshed every 10 minutes)

About weather observations | Map of Canberra area stations | Latest observations for Canberra area | Other Formats
Station Details ID: 072161 Name: CABRAMURRA SMHEA AWS Lat: -35.94 Lon: 148.38 Height: 1482.4 m
Data from the previous 72 hours. | See also: Recent months at Cabramurra
Date/Time
EST
Temp
°C
App
Temp
°C
Dew
Point
°C
Rel
Hum
%
Delta-T
°C
Wind Press
QNH
hPa
Press
MSL
hPa
Rain since
9am
mm
Dir  Spd
km/h
Gust
km/h
Spd
kts
Gust
kts
10/07:30pm 1.4 -2.5 -1.2 83 1.0 ESE 9 13 5 7 - - 0.0
10/07:00pm 1.8 -1.7 -1.4 79 1.3 ESE 7 11 4 6 - - 0.0
10/06:30pm 1.6 -1.9 -1.0 83 1.0 ESE 7 13 4 7 - - 0.0
10/06:00pm 1.7 -2.5 -0.7 84 1.0 ESE 11 13 6 7 - - 0.0
10/05:30pm 2.4 -1.4 -0.9 79 1.3 ESE 9 17 5 9 - - 0.0
10/05:00pm 3.0 -1.9 -0.6 77 1.5 SE 15 22 8 12 - - 0.0
10/04:30pm 4.1 0.9 -0.7 71 2.0 SSE 6 11 3 6 - - 0.0
10/04:00pm 3.9 -1.4 -0.7 72 1.9 SE 17 28 9 15 - - 0.0
10/03:30pm 3.9 -1.5 -1.5 68 2.2 SE 17 28 9 15 - - 0.0
10/03:00pm 3.9 -1.8 -1.1 70 2.0 ESE 19 26 10 14 - - 0.0
10/02:30pm 3.8 -2.1 -0.8 72 1.9 SE 20 32 11 17 - - 0.0
10/02:00pm 3.7 -4.3 0.6 80 1.3 ESE 32 44 17 24 - - 0.0
10/01:30pm 3.0 -3.3 -1.2 74 1.7 SE 22 39 12 21 - - 0.0
10/01:00pm 2.9 -3.7 -0.5 78 1.4 SE 24 39 13 21 - - 0.0
10/12:47pm 2.7 -5.4 -0.6 79 1.3 ESE 32 50 17 27 - - 0.0
10/12:30pm 2.4 -6.8 -1.2 77 1.4 ESE 37 52 20 28 - - 0.0
10/12:00pm 2.0 -7.9 -0.9 81 1.2 SE 41 57 22 31 - - 0.0
10/11:52am 1.8 -7.4 -1.1 81 1.1 SE 37 56 20 30 - - 0.0
10/11:30am 1.6 -7.2 -1.3 81 1.1 SE 35 48 19 26 - - 0.0
10/11:00am 1.5 -6.7 -1.2 82 1.1 SE 32 43 17 23 - - 0.0
10/10:30am 1.1 -7.8 -1.6 82 1.0 SE 35 54 19 29 - - 0.0
10/10:09am 0.7 -9.0 -2.3 80 1.2 SE 39 61 21 33 - - 0.0
10/10:00am 0.7 -9.4 -2.7 78 1.3 SE 41 57 22 31 - - 0.0
10/09:30am 0.4 -9.3 -2.3 82 1.0 SE 39 57 21 31 - - 0.0
10/09:16am 0.5 -9.9 -1.9 84 0.9 SE 43 63 23 34 - - 0.0
10/09:15am 0.5 -9.9 -1.7 85 0.9 SE 43 63 23 34 - - 0.0
10/09:00am 0.3 -12.9 -2.6 81 1.1 ESE 57 76 31 41 - - 6.4
10/08:30am 0.1 -13.5 -2.8 81 1.1 ESE 59 78 32 42 - - 6.4
10/08:00am 0.1 -12.8 -2.3 84 0.9 ESE 56 78 30 42 - - 6.4
10/07:30am 0.0 -12.2 -2.4 84 0.9 ESE 52 74 28 40 - - 6.4
10/07:00am -0.3 -13.4 -2.3 86 0.7 ESE 57 91 31 49 - - 6.4
10/06:30am 0.0 -12.8 -1.3 91 0.5 ESE 56 78 30 42 - - 6.4
10/06:03am 0.2 -13.3 -2.3 83 1.0 ESE 59 78 32 42 - - 6.4
10/06:00am 0.2 -13.7 -2.2 84 0.9 ESE 61 76 33 41 - - 6.4
10/05:30am 0.3 -12.7 -1.6 87 0.7 ESE 57 82 31 44 - - 6.4
10/05:00am 0.4 -10.0 -0.3 95 0.3 ESE 44 70 24 38 - - 6.4
10/04:30am 0.5 -11.5 -1.3 88 0.7 ESE 52 74 28 40 - - 6.4
10/04:00am 0.6 -12.8 -1.6 85 0.9 ESE 59 82 32 44 - - 6.4
10/03:30am 0.8 -12.5 -0.6 90 0.6 ESE 59 80 32 43 - - 6.4
10/03:00am 0.7 -12.9 0.1 96 0.2 ESE 61 89 33 48 - - 6.4
10/02:30am 0.8 -12.4 -0.2 93 0.4 ESE 59 83 32 45 - - 6.4
10/02:00am 0.7 -12.2 -0.7 90 0.6 ESE 57 80 31 43 - - 6.4
10/01:30am 0.9 -13.9 -0.4 91 0.5 ESE 67 89 36 48 - - 6.4
10/01:00am 0.9 -13.1 -0.2 92 0.4 ESE 63 89 34 48 - - 6.4
10/12:30am 0.9 -11.6 0.5 97 0.2 ESE 56 80 30 43 - - 6.4
10/12:16am 0.7 -12.8 0.6 99 0.0 ESE 61 93 33 50 - - 6.4
10/12:00am 0.7 -14.5 0.6 99 0.0 ESE 70 96 38 52 - - 6.4
 
Date/Time
EST
Temp
°C
App
Temp
°C
Dew
Point
°C
Rel
Hum
%
Delta-T
°C
Wind Press
QNH
hPa
Press
MSL
hPa
Rain since
9am
mm
Dir  Spd
km/h
Gust
km/h
Spd
kts
Gust
kts
09/11:32pm 0.5 -13.4 0.4 99 0.0 ESE 63 85 34 46 - - 6.0
09/11:30pm 0.6 -13.3 0.5 99 0.0 ESE 63 80 34 43 - - 6.0
09/11:00pm 1.0 -11.7 0.9 99 0.0 SE 57 78 31 42 - - 5.8
09/10:30pm 1.2 -11.4 1.1 99 0.0 SE 57 80 31 43 - - 5.6
09/10:00pm 1.2 -10.1 1.1 99 0.0 SE 50 70 27 38 - - 5.4
09/09:35pm 1.0 -8.6 0.9 99 0.0 SE 41 59 22 32 - - 5.2
09/09:30pm 1.0 -8.3 0.9 99 0.0 SE 39 56 21 30 - - 5.2
09/09:05pm 1.1 -6.1 1.0 99 0.0 SE 28 50 15 27 - - 4.8
09/09:00pm 0.9 -6.3 0.8 99 0.0 SE 28 43 15 23 - - 4.8
09/08:46pm 1.0 -6.2 0.9 99 0.0 SSE 28 65 15 35 - - 4.6
09/08:30pm 0.8 -5.6 0.7 99 0.0 SSE 24 44 13 24 - - 4.4
09/08:00pm 1.2 -4.8 1.1 99 0.0 SE 22 44 12 24 - - 4.4
09/07:36pm 1.3 -6.6 1.2 99 0.0 SE 32 50 17 27 - - 4.4
09/07:30pm 1.2 -4.4 1.1 99 0.0 SE 20 39 11 21 - - 4.4
09/07:00pm 1.3 -5.1 1.2 99 0.0 SE 24 39 13 21 - - 4.0
09/06:30pm 1.2 -4.8 1.1 99 0.0 SSE 22 39 12 21 - - 3.4
09/06:00pm 1.5 -5.6 1.4 99 0.0 SE 28 46 15 25 - - 3.4
09/05:36pm 1.8 -5.2 1.7 99 0.0 SE 28 54 15 29 - - 3.4
09/05:30pm 1.7 -5.0 1.6 99 0.0 SE 26 43 14 23 - - 3.4
09/05:01pm 2.0 -5.1 1.3 95 0.3 SE 28 48 15 26 - - 3.2
09/05:00pm 2.0 -4.7 1.3 95 0.3 SE 26 48 14 26 - - 3.2
09/04:30pm 2.0 -6.0 1.9 99 0.0 SE 33 57 18 31 - - 3.2
09/04:08pm 2.2 -4.8 2.1 99 0.0 SSE 28 59 15 32 - - 3.2
09/04:00pm 2.3 -4.7 2.2 99 0.0 SSE 28 44 15 24 - - 3.2
09/03:30pm 2.4 -4.5 2.3 99 0.0 SE 28 46 15 25 - - 3.0
09/03:29pm 2.5 -4.0 2.4 99 0.0 SE 26 46 14 25 - - 3.0
09/03:00pm 2.3 -4.3 2.2 99 0.0 SE 26 41 14 22 - - 3.0
09/02:30pm 2.4 -6.3 2.3 99 0.0 SE 37 56 20 30 - - 2.6
09/02:00pm 2.7 -4.9 2.6 99 0.0 SE 32 57 17 31 - - 2.4
09/01:30pm 3.0 -4.6 2.9 99 0.0 SE 32 50 17 27 - - 2.2
09/01:02pm 3.2 -3.6 3.1 99 0.0 SE 28 46 15 25 - - 1.6
09/01:00pm 3.2 -4.0 3.1 99 0.0 SE 30 46 16 25 - - 1.6
09/12:30pm 3.8 -5.8 3.5 98 0.1 ESE 43 65 23 35 - - 1.4
09/12:23pm 3.4 -5.5 3.0 97 0.2 ESE 39 65 21 35 - - 1.4
09/12:00pm 3.4 -3.8 3.0 97 0.2 ESE 30 54 16 29 - - 1.4
09/11:35am 3.1 -5.8 3.0 99 0.0 SE 39 80 21 43 - - 1.2
09/11:30am 3.1 -4.1 3.0 99 0.0 SE 30 61 16 33 - - 1.2
09/11:00am 3.0 -4.6 2.9 99 0.0 SE 32 50 17 27 - - 1.0
09/10:30am 2.6 -6.4 2.5 99 0.0 SE 39 63 21 34 - - 0.8
09/10:00am 2.5 -6.9 2.4 99 0.0 SE 41 59 22 32 - - 0.6
09/09:30am 2.2 -7.6 2.1 99 0.0 SE 43 65 23 35 - - 0.2
09/09:00am 2.3 -6.0 2.2 99 0.0 SE 35 56 19 30 - - 10.4
09/08:30am 2.0 -6.7 1.9 99 0.0 SE 37 67 20 36 - - 10.4
09/08:00am 1.9 -7.6 1.8 99 0.0 SE 41 65 22 35 - - 10.2
09/07:30am 1.9 -9.3 1.8 99 0.0 ESE 50 74 27 40 - - 10.2
09/07:00am 1.7 -9.2 1.6 99 0.0 ESE 48 76 26 41 - - 10.0
09/06:30am 1.8 -8.3 1.7 99 0.0 ESE 44 74 24 40 - - 10.0
09/06:00am 1.7 -8.4 1.6 99 0.0 SE 44 69 24 37 - - 10.0
09/05:30am 1.7 -6.7 1.6 99 0.0 SE 35 54 19 29 - - 9.8
09/05:00am 1.5 -7.7 1.4 99 0.0 SE 39 59 21 32 - - 9.6
09/04:30am 1.2 -7.3 1.1 99 0.0 SE 35 57 19 31 - - 9.4
09/04:00am 1.2 -8.0 1.1 99 0.0 ESE 39 69 21 37 - - 9.2
09/03:40am 1.0 -7.9 0.9 99 0.0 ESE 37 56 20 30 - - 9.2
09/03:30am 1.1 -8.5 1.0 99 0.0 SE 41 56 22 30 - - 9.2
09/03:00am 1.1 -8.9 1.0 99 0.0 SE 43 65 23 35 - - 9.2
09/02:30am 1.2 -8.8 1.1 99 0.0 SE 43 69 23 37 - - 9.2
09/02:00am 1.4 -8.2 1.3 99 0.0 SE 41 61 22 33 - - 9.2
09/01:30am 1.7 -6.7 1.6 99 0.0 SE 35 61 19 33 - - 9.0
09/01:00am 1.9 -6.8 1.8 99 0.0 SE 37 57 20 31 - - 8.8
09/12:30am 1.8 -6.2 1.7 99 0.0 SE 33 54 18 29 - - 8.6
09/12:00am 1.9 -6.1 1.8 99 0.0 SE 33 56 18 30 - - 8.4
 
Date/Time
EST
Temp
°C
App
Temp
°C
Dew
Point
°C
Rel
Hum
%
Delta-T
°C
Wind Press
QNH
hPa
Press
MSL
hPa
Rain since
9am
mm
Dir  Spd
km/h
Gust
km/h
Spd
kts
Gust
kts
08/11:39pm 1.9 -7.2 1.8 99 0.0 SE 39 57 21 31 - - 8.2
08/11:30pm 1.9 -6.8 1.8 99 0.0 SE 37 54 20 29 - - 8.2
08/11:03pm 2.0 -5.4 1.9 99 0.0 SE 30 52 16 28 - - 7.8
08/11:00pm 1.9 -5.1 1.8 99 0.0 SE 28 41 15 22 - - 7.8
08/10:30pm 1.7 -6.1 1.6 99 0.0 ESE 32 46 17 25 - - 7.6
08/10:07pm 1.6 -6.8 1.5 99 0.0 ESE 35 54 19 29 - - 7.2
08/10:00pm 1.6 -7.9 1.5 99 0.0 ESE 41 56 22 30 - - 7.0
08/09:30pm 1.2 -7.6 1.1 99 0.0 ESE 37 50 20 27 - - 6.2
08/09:00pm 1.8 -6.6 1.7 99 0.0 ESE 35 56 19 30 - - 5.2
08/08:55pm 2.0 -6.0 1.9 99 0.0 ESE 33 56 18 30 - - 5.0
08/08:30pm 2.1 -5.7 2.0 99 0.0 ESE 32 43 17 23 - - 4.4
08/08:00pm 1.7 -6.3 1.6 99 0.0 ESE 33 46 18 25 - - 4.2
08/07:30pm 1.6 -6.4 1.5 99 0.0 ESE 33 44 18 24 - - 3.8
08/07:00pm 2.1 -5.7 2.0 99 0.0 ESE 32 44 17 24 - - 2.6
08/06:30pm 2.7 -6.3 2.6 99 0.0 ESE 39 52 21 28 - - 1.2
08/06:00pm 3.0 -4.2 2.9 99 0.0 SE 30 52 16 28 - - 0.4
08/05:35pm 2.7 -5.5 2.6 99 0.0 ESE 35 54 19 29 - - 0.2
08/05:30pm 2.6 -6.0 2.5 99 0.0 ESE 37 54 20 29 - - 0.2
08/05:00pm 2.1 -6.2 2.0 99 0.0 SE 35 48 19 26 - - 0.2
08/04:30pm 2.2 -6.5 2.1 99 0.0 SE 37 50 20 27 - - 0.2
08/04:00pm 2.2 -6.5 2.1 99 0.0 SE 37 52 20 28 - - 0.2
08/03:36pm 2.4 -5.9 2.3 99 0.0 SE 35 54 19 29 - - 0.0
08/03:30pm 2.6 -6.0 2.5 99 0.0 SE 37 48 20 26 - - 0.0
08/03:00pm 2.5 -6.9 2.4 99 0.0 ESE 41 56 22 30 - - 0.0
08/02:33pm 2.9 -4.9 2.6 98 0.1 SE 33 52 18 28 - - 0.0
08/02:30pm 3.1 -5.2 2.4 95 0.3 ESE 35 52 19 28 - - 0.0
08/02:01pm 3.6 -4.2 2.7 94 0.4 SE 33 52 18 28 - - 0.0
08/02:00pm 3.5 -4.7 2.5 93 0.4 SE 35 52 19 28 - - 0.0
08/01:54pm 3.6 -4.1 2.3 91 0.6 SE 32 52 17 28 - - 0.0
08/01:30pm 3.8 -5.2 2.6 92 0.5 ESE 39 52 21 28 - - 0.0
08/01:04pm 3.7 -5.9 3.4 98 0.1 ESE 43 61 23 33 - - 0.0
08/01:00pm 3.6 -6.0 3.5 99 0.0 ESE 43 57 23 31 - - 0.0
08/12:38pm 3.9 -5.8 3.8 99 0.0 ESE 44 63 24 34 - - 0.0
08/12:30pm 4.0 -5.5 3.9 99 0.0 ESE 43 59 23 32 - - 0.0
08/12:00pm 4.0 -5.5 3.9 99 0.0 ESE 43 61 23 33 - - 0.0
08/11:30am 3.6 -6.5 3.5 99 0.0 ESE 46 72 25 39 - - 0.0
08/11:06am 3.7 -6.1 3.6 99 0.0 ESE 44 63 24 34 - - 0.0
08/11:00am 3.4 -7.2 3.1 98 0.1 ESE 48 63 26 34 - - 0.0
08/10:30am 3.0 -7.6 2.9 99 0.0 ESE 48 67 26 36 - - 0.0
08/10:26am 2.8 -7.5 2.7 99 0.0 ESE 46 67 25 36 - - 0.0
08/10:00am 2.3 -8.5 2.2 99 0.0 ESE 48 61 26 33 - - 0.0
08/09:41am 2.4 -8.0 2.3 99 0.0 ESE 46 65 25 35 - - 0.0
08/09:30am 2.1 -9.1 2.0 99 0.0 ESE 50 63 27 34 - - 0.0
08/09:22am 1.6 -8.9 1.5 99 0.0 ESE 46 65 25 35 - - 0.0
08/09:00am 1.5 -9.8 1.4 99 0.0 ESE 50 65 27 35 - - 5.6
08/08:30am 1.0 -10.3 0.9 99 0.0 ESE 50 65 27 35 - - 5.6
08/08:00am 1.0 -10.0 0.9 99 0.0 ESE 48 61 26 33 - - 5.2
08/07:37am 1.0 -9.6 0.9 99 0.0 ESE 46 65 25 35 - - 5.2
08/07:30am 1.0 -10.3 0.9 99 0.0 ESE 50 65 27 35 - - 5.2
08/07:07am 1.1 -9.1 1.0 99 0.0 ESE 44 63 24 34 - - 5.2
08/07:00am 1.1 -9.5 1.0 99 0.0 ESE 46 61 25 33 - - 5.2
08/06:30am 1.4 -9.1 1.3 99 0.0 ESE 46 61 25 33 - - 5.0
08/06:14am 1.6 -8.9 1.5 99 0.0 ESE 46 65 25 35 - - 5.0
08/06:00am 1.8 -9.4 1.7 99 0.0 ESE 50 67 27 36 - - 4.8
08/05:30am 1.6 -9.7 1.5 99 0.0 ESE 50 70 27 38 - - 4.8
08/05:04am 1.5 -10.1 1.4 99 0.0 ESE 52 70 28 38 - - 4.8
08/05:00am 1.5 -10.5 1.4 99 0.0 ESE 54 70 29 38 - - 4.8
08/04:35am 1.5 -9.8 1.4 99 0.0 ESE 50 69 27 37 - - 4.8
08/04:30am 1.5 -10.5 1.4 99 0.0 ESE 54 69 29 37 - - 4.8
08/04:22am 1.5 -9.8 1.4 99 0.0 ESE 50 69 27 37 - - 4.6
08/04:00am 1.4 -10.3 1.3 99 0.0 ESE 52 67 28 36 - - 4.6
08/03:31am 1.1 -9.5 1.0 99 0.0 ESE 46 65 25 35 - - 4.6
08/03:30am 0.9 -9.7 0.8 99 0.0 ESE 46 63 25 34 - - 4.6
08/03:00am 1.1 -9.5 1.0 99 0.0 ESE 46 65 25 35 - - 4.6
08/02:31am 0.8 -10.2 0.7 99 0.0 ESE 48 67 26 36 - - 4.6
08/02:30am 0.9 -10.5 0.8 99 0.0 ESE 50 67 27 36 - - 4.6
08/02:00am 1.2 -10.9 1.1 99 0.0 ESE 54 76 29 41 - - 4.6
08/01:33am 1.7 -12.4 1.6 99 0.0 ESE 65 83 35 45 - - 4.6
08/01:30am 1.5 -12.6 1.4 99 0.0 ESE 65 83 35 45 - - 4.6
08/01:29am 1.5 -12.6 1.4 99 0.0 ESE 65 83 35 45 - - 4.6
08/01:00am 1.0 -10.3 0.9 99 0.0 ESE 50 76 27 41 - - 4.6
08/12:30am 1.0 -10.3 0.9 99 0.0 ESE 50 70 27 38 - - 4.6
08/12:00am 1.0 -10.7 0.9 99 0.0 ESE 52 74 28 40 - - 4.6
 
Date/Time
EST
Temp
°C
App
Temp
°C
Dew
Point
°C
Rel
Hum
%
Delta-T
°C
Wind Press
QNH
hPa
Press
MSL
hPa
Rain since
9am
mm
Dir  Spd
km/h
Gust
km/h
Spd
kts
Gust
kts
07/11:34pm 0.9 -10.8 0.8 99 0.0 ESE 52 72 28 39 - - 4.4
07/11:30pm 0.7 -11.5 0.6 99 0.0 ESE 54 69 29 37 - - 4.4
07/11:22pm 0.8 -13.0 0.8 100 0.0 ESE 63 82 34 44 - - 4.4
07/11:16pm 1.0 -12.4 1.0 100 0.0 ESE 61 82 33 44 - - 4.4
07/11:00pm 0.8 -10.6 0.8 100 0.0 ESE 50 69 27 37 - - 4.4
07/10:30pm 1.0 -12.8 1.0 100 0.0 ESE 63 83 34 45 - - 4.4
07/10:00pm 0.9 -14.2 0.9 100 0.0 ESE 70 89 38 48 - - 4.2
07/09:30pm 0.9 -14.1 0.9 100 0.0 ESE 69 89 37 48 - - 4.0
07/09:00pm 0.8 -14.4 0.8 100 0.0 ESE 70 91 38 49 - - 3.8
07/08:30pm 0.9 -12.9 0.9 100 0.0 ESE 63 85 34 46 - - 3.8
07/08:00pm 0.7 -13.1 0.7 100 0.0 ESE 63 83 34 45 - - 3.8

Latest Capital City Observations: Canberra | Sydney | Melbourne | Brisbane | Adelaide | Perth | Hobart | Darwin

Other formats

Comma delimited format used in spreadsheet applications
http://www.bom.gov.au/fwo/IDN60903/IDN60903.95916.axf

JavaScript Object Notation format (JSON) in row-major order
http://www.bom.gov.au/fwo/IDN60903/IDN60903.95916.json

Data quality

Most of these data are generated automatically and are frequently updated. Quality checks on data are not normally performed. It is possible for incorrect values to appear. Refer to information at About Latest Weather Observations and please check the disclaimer before using these data.